LEIBLFKB

Guest
Details From LEIB - Ibiza
To LFKB - Bastia Poretta
Flight Number -
Tags decoded
Created
Modified
Stats Distance 445 nm / 825 km
Max Altitude 0 ft / 0 m
Waypoints 5
Social Downloads 5
Likes 0
Share

Download

Looking for another format? Having issues loading an existing format? Contact us
Advertisement - Login to hide

Notes

Requested: LEIB PTC AJO LIBLO LFKB

Route

LEIB PTC AJO LIBLO LFKB

ID Type Via Altitude (ft/m) Position (lat/lon) Dist (leg/tot) Name
O LEIB APT - 0 / 0 38.87287 / 1.37304 - / 0 nm Ibiza
PTC NDB - 0 / 0 39.42732 / 3.25672 93 / 93 nm PORTO COLOM LOM
AJO VOR - 0 / 0 41.77053 / 8.77467 288 / 382 nm AJACCIO VOR-DME
LIBLO FIX - 0 / 0 42.25111 / 8.82833 28 / 411 nm
O LFKB APT - 0 / 0 42.55251 / 9.48371 34 / 445 nm Bastia Poretta

Altitude Profile

Advertisement - Login to hide

Weather


0- 5 10 15 20 25 30 35+ Temperature / °C

Clouds and Precipitation
Forecast for 2020-10-25 00:00 UTC. Updated 5 hours ago

Ground ~20,000 ft ~40,000 ft Winds

LEIB

Details ICAO LEIB (IBZ)
Name Ibiza
Region Spain
Timezone Europe/Madrid (UTC+1.0)
Stats Elevation 24 ft / 7 m (AMSL)
Location 38.872800° 1.373130°
Runways 1
Magnetic Variation 0.973° E

METAR

LEIB 250200Z 25012KT 9999 FEW020 20/14 Q1019 NOSIG

Decode

TAF

TAF LEIB 242000Z 2421/2521 23012KT 9999 FEW035 TX23/2512Z TN17/2505Z TEMPO 2421/2501 25015G25KT BECMG 2503/2505 27012KT BECMG 2510/2512 23015G25KT

Decode

Departure Runways

ID Width Length Bearing (true/mag) Surface Threshold Overrun Markings Lighting
06 148 ft / 45 m 9,160 ft / 2,792 m 61.99° / 61.01° ASPHALT 0 ft / 0 m 0 ft / 0 m PREC-APP CENTERLINE EDGE THRESHOLD CALVERT-ILS TDZ
24 148 ft / 45 m 9,160 ft / 2,792 m 242.00° / 241.03° ASPHALT 0 ft / 0 m 0 ft / 0 m PREC-APP CENTERLINE EDGE THRESHOLD CALVERT

LFKB

Details ICAO LFKB (BIA)
Name Bastia Poretta
Region France
Timezone Europe/Paris (UTC+1.0)
Stats Elevation 24 ft / 7 m (AMSL)
Location 42.552600° 9.483750°
Runways 1
Magnetic Variation 2.794° E

METAR

LFKB 250200Z AUTO VRB03KT CAVOK 11/08 Q1017 NOSIG

Decode

TAF

TAF LFKB 242000Z 2421/2521 23005KT 9999 NSC TX22/2512Z TN13/2503Z BECMG 2509/2511 14008KT

Decode

Destination Runways

ID Width Length Bearing (true/mag) Surface Threshold Overrun Markings Lighting
16 148 ft / 45 m 8,273 ft / 2,522 m 162.83° / 160.04° ASPHALT 0 ft / 0 m 102 ft / 31 m APP CENTERLINE EDGE THRESHOLD TDZ REIL-OMNI
34 148 ft / 45 m 8,273 ft / 2,522 m 342.84° / 340.05° ASPHALT 0 ft / 0 m 0 ft / 0 m PREC-APP CENTERLINE EDGE THRESHOLD TDZ REIL-OMNI

Approach Navaids

Runway Type Ident Frequency Range Bearing (true/mag) Slope Elevation
34 LOC-ILS BP 111.35 MHz 18 nm / 33 km 342.81° / 340.02 ° - 25 ft / 8 m (AMSL)
34 GS BP 111.35 MHz 10 nm / 19 km 343.62° / 340.83 ° 3.00° 25 ft / 8 m (AMSL)
34 DME BP 111.35 MHz 18 nm / 33 km - - 69 ft / 21 m (AMSL)

Popular Alternatives